Time;durP1;ratioP1;P1;durP2;ratioP2;P2;SDS_P1;SDS_P2;PMS_P1;PMS_P2;Temp;Humidity;BMP_temperature;BMP_pressure;BME280_temperature;BME280_humidity;BME280_pressure;Samples;Min_cycle;Max_cycle;Signal;HPM_P1;HPM_P2
2022/05/24 00:00:33;;;;;;;36.45;32.70;;;;;;;13.30;100.00;100103.78;4967239;28;20146;-65
2022/05/24 00:02:59;;;;;;;32.72;29.58;;;;;;;13.32;100.00;100101.19;4966942;28;20023;-65
2022/05/24 00:05:26;;;;;;;31.05;27.75;;;;;;;13.30;100.00;100092.50;4965835;28;20019;-65
2022/05/24 00:07:52;;;;;;;31.88;28.95;;;;;;;13.29;100.00;100077.75;4966143;28;20392;-65
2022/05/24 00:10:21;;;;;;;29.05;26.13;;;;;;;13.31;100.00;100081.25;4966520;28;20023;-66
2022/05/24 00:12:46;;;;;;;28.88;26.02;;;;;;;13.30;100.00;100076.91;4965260;28;20019;-65
2022/05/24 00:15:27;;;;;;;27.30;24.80;;;;;;;13.24;100.00;100075.09;4967467;28;20057;-65
2022/05/24 00:18:16;;;;;;;25.92;23.17;;;;;;;13.19;100.00;100064.66;4963941;28;20034;-65
2022/05/24 00:20:51;;;;;;;24.00;21.48;;;;;;;13.17;100.00;100070.69;4965158;28;20077;-66
2022/05/24 00:23:18;;;;;;;24.00;21.67;;;;;;;13.12;100.00;100072.38;4966900;28;20056;-66
2022/05/24 00:25:46;;;;;;;23.35;20.92;;;;;;;13.10;100.00;100085.38;4964985;28;20113;-65
2022/05/24 00:28:14;;;;;;;23.60;21.30;;;;;;;13.04;100.00;100088.78;4966692;28;20398;-65
2022/05/24 00:30:40;;;;;;;25.55;21.10;;;;;;;13.00;100.00;100092.25;4964535;28;20034;-65
2022/05/24 00:33:06;;;;;;;23.20;20.77;;;;;;;12.90;100.00;100087.81;4966677;28;20238;-65
2022/05/24 00:35:33;;;;;;;22.35;20.05;;;;;;;12.92;100.00;100084.34;4966583;28;20113;-65
2022/05/24 00:37:58;;;;;;;22.95;20.60;;;;;;;12.92;100.00;100080.88;4967172;28;20441;-65
2022/05/24 00:40:44;;;;;;;22.60;20.45;;;;;;;12.88;100.00;100074.75;4964467;28;20165;-65
2022/05/24 00:43:31;;;;;;;24.52;20.17;;;;;;;12.81;100.00;100078.16;4967004;28;20026;-65
2022/05/24 00:46:03;;;;;;;20.77;18.50;;;;;;;12.77;100.00;100076.41;4966485;28;20539;-66
2022/05/24 00:48:32;;;;;;;19.20;17.33;;;;;;;12.67;100.00;100073.69;4966409;28;20022;-65
2022/05/24 00:51:01;;;;;;;18.55;16.70;;;;;;;12.64;100.00;100071.06;4966901;28;20035;-66
2022/05/24 00:53:48;;;;;;;17.50;15.65;;;;;;;12.60;100.00;100079.69;4970680;28;20348;-65
2022/05/24 00:56:18;;;;;;;16.88;15.30;;;;;;;12.61;100.00;100084.00;4951762;28;20031;-65
2022/05/24 00:58:55;;;;;;;21.15;15.63;;;;;;;12.56;100.00;100081.38;4967745;28;20419;-65
2022/05/24 01:01:35;;;;;;;17.52;15.70;;;;;;;12.52;100.00;100086.53;4967666;28;20034;-65
2022/05/24 01:04:01;;;;;;;21.75;16.15;;;;;;;12.55;100.00;100083.94;4967673;28;20031;-65
2022/05/24 01:06:26;;;;;;;20.67;15.23;;;;;;;12.52;100.00;100081.31;4970296;28;20037;-65
2022/05/24 01:08:54;;;;;;;19.38;15.80;;;;;;;12.51;100.00;100074.38;4970228;28;20085;-65
2022/05/24 01:11:21;;;;;;;20.77;15.88;;;;;;;12.40;100.00;100080.31;4969858;28;20391;-66
2022/05/24 01:13:46;;;;;;;19.42;15.48;;;;;;;12.38;100.00;100078.56;4967653;28;20026;-66
2022/05/24 01:16:13;;;;;;;20.45;15.43;;;;;;;12.31;100.00;100072.41;4968797;28;20038;-65
2022/05/24 01:18:39;;;;;;;20.02;15.40;;;;;;;12.25;100.00;100079.25;4970131;28;20030;-66
2022/05/24 01:21:08;;;;;;;19.85;14.25;;;;;;;12.22;100.00;100081.81;4969659;28;20494;-65
2022/05/24 01:23:53;;;;;;;17.13;13.63;;;;;;;12.18;100.00;100069.63;4968264;28;20081;-65
2022/05/24 01:26:40;;;;;;;17.58;13.05;;;;;;;12.17;100.00;100065.31;4969942;28;20418;-65
2022/05/24 01:29:08;;;;;;;14.20;12.07;;;;;;;12.16;100.00;100073.94;4970310;28;20089;-66
2022/05/24 01:37:06;;;;;;;17.58;11.82;;;;;;;12.05;100.00;100094.56;4967701;28;20574;-65
2022/05/24 01:39:32;;;;;;;16.30;11.82;;;;;;;12.02;100.00;100097.09;4970198;28;20026;-65
2022/05/24 01:41:58;;;;;;;15.25;10.23;;;;;;;12.01;100.00;100091.06;4984288;28;20089;-66
2022/05/24 01:44:35;;;;;;;21.58;10.30;;;;;;;11.97;100.00;100093.56;4970137;28;20031;-65
2022/05/24 01:47:00;;;;;;;16.27;9.50;;;;;;;11.96;100.00;100097.88;4967234;28;20049;-65
2022/05/24 01:49:31;;;;;;;15.48;10.05;;;;;;;11.93;100.00;100089.16;4970078;28;20118;-66
2022/05/24 01:52:12;;;;;;;15.30;9.77;;;;;;;11.91;100.00;100096.09;4969941;28;20027;-65
2022/05/24 01:54:46;;;;;;;11.95;8.57;;;;;;;11.89;100.00;100091.72;4969533;28;20041;-65
2022/05/24 01:57:16;;;;;;;10.63;7.95;;;;;;;11.86;100.00;100085.63;4969336;28;20109;-65
2022/05/24 01:59:44;;;;;;;13.88;7.97;;;;;;;11.86;100.00;100085.63;4967503;28;20357;-65
2022/05/24 02:02:10;;;;;;;11.93;6.80;;;;;;;11.83;100.00;100080.38;4950813;28;20026;-65
2022/05/24 02:04:36;;;;;;;12.65;7.72;;;;;;;11.78;100.00;100075.13;4969468;28;20447;-65
2022/05/24 02:07:08;;;;;;;11.05;6.47;;;;;;;11.82;100.00;100076.06;4970080;28;20438;-65
2022/05/24 02:09:36;;;;;;;13.02;6.82;;;;;;;11.81;100.00;100077.78;4967392;28;20545;-65
2022/05/24 02:12:18;;;;;;;13.70;7.35;;;;;;;11.77;100.00;100086.34;4967398;28;20369;-65
2022/05/24 02:14:51;;;;;;;11.57;5.32;;;;;;;11.66;100.00;100088.78;4969598;28;20054;-65
2022/05/24 02:17:24;;;;;;;10.13;6.10;;;;;;;11.61;100.00;100098.22;4967415;28;20038;-66
2022/05/24 02:19:56;;;;;;;14.52;5.95;;;;;;;11.58;100.00;100100.78;4969222;28;20057;-65
2022/05/24 02:22:26;;;;;;;13.25;6.47;;;;;;;11.57;100.00;100099.00;4969623;28;20053;-65
2022/05/24 02:25:02;;;;;;;12.88;5.80;;;;;;;11.59;100.00;100094.72;4967779;28;20373;-65
2022/05/24 02:27:28;;;;;;;8.95;5.15;;;;;;;11.55;100.00;100095.53;4967778;28;20035;-65
2022/05/24 02:29:54;;;;;;;8.02;5.20;;;;;;;11.50;100.00;100096.34;4968447;28;20037;-65
2022/05/24 02:32:20;;;;;;;9.63;4.70;;;;;;;11.55;100.00;100091.22;4968907;28;20026;-65
2022/05/24 02:34:45;;;;;;;9.20;4.78;;;;;;;11.54;100.00;100092.06;4968984;28;20053;-65
2022/05/24 02:37:11;;;;;;;9.27;4.63;;;;;;;11.50;100.00;100090.25;4969024;28;20109;-66
2022/05/24 02:41:28;;;;;;;7.75;4.32;;;;;;;11.51;100.00;100085.09;4969029;28;20033;-66
2022/05/24 02:42:22;;;;;;;8.98;4.60;;;;;;;11.50;100.00;100088.53;4968332;28;20035;-65
2022/05/24 02:44:47;;;;;;;9.50;4.63;;;;;;;11.51;100.00;100089.44;4968667;28;20033;-65
2022/05/24 02:47:12;;;;;;;11.23;4.45;;;;;;;11.41;100.00;100088.38;4968516;28;20483;-65
2022/05/24 02:49:38;;;;;;;8.18;4.60;;;;;;;11.39;100.00;100095.28;4968316;28;20102;-65
2022/05/24 02:52:03;;;;;;;9.93;4.30;;;;;;;11.38;100.00;100089.22;4968527;28;20395;-65
2022/05/24 02:54:30;;;;;;;7.68;4.22;;;;;;;11.41;100.00;100093.56;4966217;28;20034;-66
2022/05/24 02:56:55;;;;;;;7.82;4.05;;;;;;;11.37;100.00;100097.00;4968512;28;20019;-66
2022/05/24 02:59:20;;;;;;;9.38;4.00;;;;;;;11.33;100.00;100090.88;4968257;28;20077;-65
2022/05/24 03:01:45;;;;;;;10.48;4.13;;;;;;;11.35;100.00;100083.97;4968467;28;20053;-65
2022/05/24 03:04:11;;;;;;;10.73;4.00;;;;;;;11.33;100.00;100077.03;4968180;28;20045;-65
2022/05/24 03:09:35;;;;;;;7.40;3.28;;;;;;;11.35;100.00;100090.91;4968119;28;20042;-65
2022/05/24 03:14:49;;;;;;;8.80;3.90;;;;;;;11.28;100.00;100093.38;4968738;28;20395;-65
2022/05/24 03:17:16;;;;;;;6.20;3.40;;;;;;;11.25;100.00;100093.31;4965374;28;20046;-65
2022/05/24 03:19:42;;;;;;;9.32;4.03;;;;;;;11.20;100.00;100099.28;4967919;28;20122;-65
2022/05/24 03:22:09;;;;;;;10.75;4.05;;;;;;;11.20;100.00;100094.09;4967359;28;20113;-65
2022/05/24 03:24:37;;;;;;;8.40;4.10;;;;;;;11.17;100.00;100100.97;4966449;28;20027;-65
2022/05/24 03:27:11;;;;;;;9.88;4.40;;;;;;;11.17;100.00;100110.47;4966935;28;20363;-65
2022/05/24 03:29:38;;;;;;;11.77;4.25;;;;;;;11.15;100.00;100114.75;4963586;28;20022;-65
2022/05/24 03:32:04;;;;;;;8.73;4.20;;;;;;;11.13;100.00;100101.78;4966864;28;20475;-65
2022/05/24 03:34:30;;;;;;;11.77;4.22;;;;;;;11.14;100.00;100105.22;4966497;28;20105;-65
2022/05/24 03:36:55;;;;;;;9.23;4.30;;;;;;;11.21;100.00;100111.38;4965816;28;20151;-65
2022/05/24 03:39:21;;;;;;;7.20;4.13;;;;;;;11.25;100.00;100111.47;4966594;28;20089;-65
2022/05/24 03:41:46;;;;;;;9.63;4.68;;;;;;;11.27;100.00;100102.00;4965886;28;20038;-65
2022/05/24 03:44:12;;;;;;;9.77;4.57;;;;;;;11.24;100.00;100101.09;4965738;28;20449;-66
2022/05/24 03:46:38;;;;;;;11.60;4.57;;;;;;;11.26;100.00;100094.22;4966919;28;20037;-65
2022/05/24 03:49:04;;;;;;;8.73;5.07;;;;;;;11.24;100.00;100091.56;4966839;28;20029;-66
2022/05/24 03:51:29;;;;;;;10.40;5.93;;;;;;;11.25;100.00;100116.66;4963182;28;20015;-65
2022/05/24 03:53:54;;;;;;;16.50;6.25;;;;;;;11.23;100.00;100114.88;4965591;28;20033;-65
2022/05/24 03:56:20;;;;;;;12.35;6.18;;;;;;;11.19;100.00;100119.13;4965392;28;20027;-65
2022/05/24 03:58:45;;;;;;;11.75;6.25;;;;;;;11.22;100.00;100131.31;4963606;28;20080;-65
2022/05/24 04:01:10;;;;;;;8.60;6.22;;;;;;;11.23;100.00;100136.50;4948118;28;20035;-66
2022/05/24 04:03:36;;;;;;;12.35;6.40;;;;;;;11.26;100.00;100125.34;4949407;28;20515;-65
2022/05/24 04:06:01;;;;;;;11.45;6.88;;;;;;;11.26;100.00;100146.09;4949653;28;20399;-65
2022/05/24 04:08:29;;;;;;;10.77;6.20;;;;;;;11.20;100.00;100162.41;4949705;28;20027;-65
2022/05/24 04:11:09;;;;;;;10.75;5.88;;;;;;;11.21;100.00;100166.72;4949351;28;20511;-65
2022/05/24 04:13:37;;;;;;;9.63;5.30;;;;;;;11.24;100.00;100164.19;4949667;28;20096;-65
2022/05/24 04:16:03;;;;;;;12.80;5.88;;;;;;;11.30;100.00;100163.44;4949661;28;20043;-65
2022/05/24 04:18:28;;;;;;;13.82;4.90;;;;;;;11.33;100.00;100173.00;4949759;28;20038;-65
2022/05/24 04:20:54;;;;;;;7.65;4.60;;;;;;;11.33;100.00;100167.81;4949828;28;20047;-66
2022/05/24 04:23:21;;;;;;;9.65;4.65;;;;;;;11.29;100.00;100152.19;4949432;28;20086;-65
2022/05/24 04:25:47;;;;;;;7.88;5.00;;;;;;;11.28;100.00;100129.69;4948707;28;20031;-65
2022/05/24 04:28:13;;;;;;;8.95;4.00;;;;;;;11.32;100.00;100119.34;4949263;28;20046;-66
2022/05/24 04:30:38;;;;;;;8.18;4.15;;;;;;;11.32;100.00;100127.13;4950046;28;20027;-66
2022/05/24 04:33:04;;;;;;;7.20;3.63;;;;;;;11.33;100.00;100123.72;4949425;28;20020;-65
2022/05/24 04:35:29;;;;;;;12.50;4.18;;;;;;;11.35;100.00;100142.78;4949287;28;20110;-66
2022/05/24 04:37:55;;;;;;;9.25;4.22;;;;;;;11.33;100.00;100162.63;4949205;28;20387;-65
2022/05/24 04:42:18;;;;;;;10.60;4.47;;;;;;;11.24;100.00;100176.28;4949225;28;20147;-66
2022/05/24 04:43:05;;;;;;;8.95;3.75;;;;;;;11.29;100.00;100185.03;4963426;28;20035;-66
2022/05/24 04:45:31;;;;;;;9.73;4.40;;;;;;;11.28;100.00;100181.56;4968015;28;20793;-66
2022/05/24 04:47:56;;;;;;;10.43;3.97;;;;;;;11.29;100.00;100170.34;4967351;28;20041;-66
2022/05/24 04:50:21;;;;;;;7.90;3.65;;;;;;;11.27;100.00;100166.84;4967712;28;20364;-65
2022/05/24 04:52:46;;;;;;;6.38;3.25;;;;;;;11.29;100.00;100172.94;4967643;28;20019;-65
2022/05/24 04:55:13;;;;;;;9.38;3.75;;;;;;;11.32;100.00;100173.81;4967611;28;20103;-68
2022/05/24 04:57:38;;;;;;;12.13;3.60;;;;;;;11.33;100.00;100184.25;4967552;28;20263;-65
2022/05/24 05:00:06;;;;;;;6.35;3.10;;;;;;;11.26;100.00;100182.38;4949754;28;20427;-65
2022/05/24 05:02:31;;;;;;;10.88;3.60;;;;;;;11.27;100.00;100190.19;4949037;28;20035;-65
2022/05/24 05:04:57;;;;;;;7.70;3.35;;;;;;;11.24;100.00;100199.63;4949187;28;20027;-65
2022/05/24 05:07:22;;;;;;;7.70;3.20;;;;;;;11.21;100.00;100218.59;4949424;28;20439;-65
2022/05/24 05:09:50;;;;;;;7.22;2.80;;;;;;;11.24;100.00;100216.06;4948510;28;20102;-65
2022/05/24 05:12:16;;;;;;;7.55;3.30;;;;;;;11.24;100.00;100221.25;4949180;28;20112;-65
2022/05/24 05:14:41;;;;;;;9.18;3.00;;;;;;;11.28;100.00;100227.34;4949303;28;20052;-65
2022/05/24 05:17:08;;;;;;;8.70;3.25;;;;;;;11.29;100.00;100239.50;4949210;28;20023;-65
2022/05/24 05:19:33;;;;;;;7.80;3.33;;;;;;;11.28;100.00;100233.44;4949129;28;20396;-65
2022/05/24 05:21:59;;;;;;;9.63;3.28;;;;;;;11.31;100.00;100232.63;4948405;28;20023;-65
2022/05/24 05:24:24;;;;;;;10.52;3.22;;;;;;;11.31;100.00;100226.56;4963105;28;20029;-65
2022/05/24 05:26:50;;;;;;;8.57;3.22;;;;;;;11.33;100.00;100224.88;4967336;28;20114;-65
2022/05/24 05:29:15;;;;;;;7.85;3.28;;;;;;;11.34;100.00;100221.41;4967427;28;20030;-66
2022/05/24 05:31:41;;;;;;;7.05;3.33;;;;;;;11.35;100.00;100220.59;4982464;28;20027;-65
2022/05/24 05:34:07;;;;;;;8.43;2.80;;;;;;;11.34;100.00;100227.50;4966307;28;20045;-65
2022/05/24 05:36:34;;;;;;;7.20;3.00;;;;;;;11.35;100.00;100220.59;4967279;28;20514;-65
2022/05/24 05:38:59;;;;;;;7.07;3.03;;;;;;;11.37;100.00;100216.31;4970223;28;20030;-65
2022/05/24 05:41:30;;;;;;;8.60;3.47;;;;;;;11.33;100.00;100205.00;4970498;28;20034;-66
2022/05/24 05:43:58;;;;;;;6.90;3.08;;;;;;;11.33;100.00;100210.19;4970320;28;20034;-65
2022/05/24 05:46:24;;;;;;;8.52;3.25;;;;;;;11.37;100.00;100211.97;4970025;28;20039;-65
2022/05/24 05:48:49;;;;;;;7.05;2.60;;;;;;;11.39;100.00;100215.47;4970492;28;20026;-65
2022/05/24 05:51:16;;;;;;;8.07;2.80;;;;;;;11.39;100.00;100217.19;4970548;28;20089;-66
2022/05/24 05:53:42;;;;;;;7.43;2.63;;;;;;;11.45;100.00;100219.91;4969902;28;20133;-65
2022/05/24 05:56:13;;;;;;;9.02;2.75;;;;;;;11.44;100.00;100238.91;4969845;28;20117;-66
2022/05/24 05:58:39;;;;;;;5.88;2.70;;;;;;;11.37;100.00;100247.44;4970309;28;20399;-66
2022/05/24 06:01:04;;;;;;;7.32;2.58;;;;;;;11.31;100.00;100255.09;4970023;28;20500;-66
2022/05/24 06:03:30;;;;;;;6.68;3.28;;;;;;;11.27;100.00;100257.63;4970461;28;20023;-65
2022/05/24 06:06:00;;;;;;;8.20;3.67;;;;;;;11.27;100.00;100260.22;4969423;28;20034;-66
2022/05/24 06:08:25;;;;;;;7.57;2.50;;;;;;;11.27;100.00;100267.13;4969431;28;20117;-66
2022/05/24 06:10:51;;;;;;;9.00;2.72;;;;;;;11.28;100.00;100264.56;4970114;28;20117;-65
2022/05/24 06:13:16;;;;;;;8.88;3.17;;;;;;;11.35;100.00;100270.72;4970030;28;20029;-65
2022/05/24 06:15:42;;;;;;;10.38;3.15;;;;;;;11.38;100.00;100278.59;4968836;28;20038;-65
2022/05/24 06:18:08;;;;;;;8.10;2.40;;;;;;;11.47;100.00;100269.22;4983182;28;20526;-65
2022/05/24 06:20:33;;;;;;;6.47;2.28;;;;;;;11.55;100.00;100279.78;4968376;28;20046;-66
2022/05/24 06:22:59;;;;;;;8.23;2.60;;;;;;;11.57;100.00;100270.25;4949532;28;20387;-67
2022/05/24 06:25:27;;;;;;;9.27;2.78;;;;;;;11.71;100.00;100263.63;4950958;28;20545;-65
2022/05/24 06:27:54;;;;;;;7.95;2.42;;;;;;;11.87;100.00;100261.31;4951115;28;20396;-66
2022/05/24 06:30:21;;;;;;;5.65;2.35;;;;;;;12.04;100.00;100271.97;4950968;28;20468;-65
2022/05/24 06:32:48;;;;;;;8.57;2.25;;;;;;;12.30;100.00;100268.97;4951453;28;20041;-66
2022/05/24 06:35:13;;;;;;;8.30;2.20;;;;;;;12.54;100.00;100266.72;4951108;28;20034;-66
2022/05/24 06:37:40;;;;;;;5.43;1.95;;;;;;;12.76;100.00;100277.41;4951380;28;20034;-66
2022/05/24 06:40:07;;;;;;;9.07;1.98;;;;;;;12.82;100.00;100283.59;4951117;28;20093;-66
2022/05/24 06:42:32;;;;;;;6.45;2.63;;;;;;;12.98;99.57;100273.38;4951619;28;20027;-65
2022/05/24 06:44:58;;;;;;;6.78;2.13;;;;;;;13.22;98.57;100284.97;4950698;28;20081;-65
2022/05/24 06:47:23;;;;;;;7.15;2.05;;;;;;;13.36;96.43;100282.53;4950505;28;20082;-66
2022/05/24 06:49:49;;;;;;;4.75;2.00;;;;;;;13.51;94.98;100301.78;4950972;28;20026;-67
2022/05/24 06:52:15;;;;;;;5.65;1.77;;;;;;;13.75;94.96;100302.91;4951399;28;20031;-65
2022/05/24 06:54:40;;;;;;;7.32;2.03;;;;;;;13.82;92.04;100312.53;4951096;28;20031;-65
2022/05/24 06:57:06;;;;;;;7.88;1.95;;;;;;;13.85;89.79;100307.34;4950308;28;20062;-65
2022/05/24 07:02:25;;;;;;;6.88;1.83;;;;;;;13.97;90.05;100314.44;4950620;28;20054;-66
2022/05/24 07:05:00;;;;;;;7.47;2.15;;;;;;;14.25;90.81;100321.59;4950614;28;20837;-65
2022/05/24 07:07:27;;;;;;;7.30;1.85;;;;;;;14.32;89.71;100312.97;4963423;28;20046;-66
2022/05/24 07:09:52;;;;;;;7.97;2.30;;;;;;;14.32;87.27;100320.78;4969161;28;20446;-66
2022/05/24 07:12:20;;;;;;;6.75;1.83;;;;;;;14.33;85.83;100324.28;4969499;28;20030;-66
2022/05/24 07:14:45;;;;;;;4.82;1.83;;;;;;;14.24;86.28;100331.19;4950746;28;20053;-66
2022/05/24 07:17:10;;;;;;;4.93;2.17;;;;;;;14.35;87.00;100339.09;4950098;28;20043;-66
2022/05/24 07:19:35;;;;;;;8.63;1.58;;;;;;;14.54;86.96;100334.00;4949905;28;20487;-66
2022/05/24 07:22:01;;;;;;;5.28;1.70;;;;;;;14.56;85.19;100337.50;4950117;28;20045;-66
2022/05/24 07:24:27;;;;;;;4.22;1.10;;;;;;;14.61;84.77;100333.19;4949978;28;20456;-66
2022/05/24 07:26:53;;;;;;;7.13;1.38;;;;;;;14.59;88.43;100342.72;4950208;28;20419;-65
2022/05/24 07:29:18;;;;;;;6.45;1.80;;;;;;;14.31;86.03;100346.84;4950893;28;20190;-66
2022/05/24 07:31:43;;;;;;;9.25;1.83;;;;;;;14.31;86.18;100345.13;4950177;28;20031;-66
2022/05/24 07:34:09;;;;;;;8.65;1.65;;;;;;;14.23;85.72;100352.00;4949704;28;20031;-66
2022/05/24 07:36:34;;;;;;;5.55;1.25;;;;;;;14.35;87.57;100341.69;4949946;28;20121;-66
2022/05/24 07:38:59;;;;;;;6.15;1.15;;;;;;;14.57;85.20;100352.25;4950089;28;20397;-66
2022/05/24 07:46:53;;;;;;;4.22;1.15;;;;;;;14.24;84.14;100361.56;4963049;28;20093;-65
2022/05/24 07:49:18;;;;;;;3.53;1.13;;;;;;;14.06;83.06;100357.94;4968085;28;20026;-66
2022/05/24 07:51:43;;;;;;;5.47;1.52;;;;;;;14.26;85.71;100357.25;4968565;28;20027;-66
2022/05/24 07:54:08;;;;;;;3.97;1.65;;;;;;;14.37;84.61;100355.59;4949566;28;20134;-66
2022/05/24 07:56:34;;;;;;;6.22;1.27;;;;;;;14.43;82.75;100346.09;4949234;28;20463;-66
2022/05/24 07:58:59;;;;;;;4.22;1.33;;;;;;;14.41;80.88;100357.38;4949580;28;20019;-66
2022/05/24 08:01:24;;;;;;;4.10;1.27;;;;;;;14.42;81.24;100360.84;4949470;28;20023;-66
2022/05/24 08:03:50;;;;;;;4.50;1.80;;;;;;;14.33;80.97;100361.66;4949625;28;20414;-66
2022/05/24 08:06:17;;;;;;;3.00;1.33;;;;;;;14.19;81.51;100365.84;4949710;28;20484;-66
2022/05/24 08:08:43;;;;;;;6.43;2.30;;;;;;;14.20;81.42;100365.88;4949561;28;20093;-66
2022/05/24 08:11:08;;;;;;;7.07;2.10;;;;;;;14.27;85.24;100365.06;4932376;29;20521;-66
2022/05/24 08:13:34;;;;;;;3.80;1.60;;;;;;;14.24;81.63;100369.38;4949975;28;20031;-66
2022/05/24 08:15:59;;;;;;;4.10;2.00;;;;;;;14.33;81.29;100374.69;4949831;28;20027;-67
2022/05/24 08:18:24;;;;;;;4.38;1.60;;;;;;;14.50;80.28;100386.97;4949532;28;20099;-66
2022/05/24 08:20:52;;;;;;;4.53;1.70;;;;;;;14.73;81.08;100375.88;4949500;28;20426;-66
2022/05/24 08:23:19;;;;;;;4.55;2.03;;;;;;;14.94;79.17;100369.06;4949176;28;20063;-66
2022/05/24 08:25:44;;;;;;;2.20;1.42;;;;;;;15.19;79.12;100379.66;4950193;28;20027;-66
2022/05/24 08:28:10;;;;;;;3.97;1.98;;;;;;;15.33;79.25;100390.16;4949604;28;20039;-66
2022/05/24 08:30:38;;;;;;;4.03;2.40;;;;;;;15.51;76.98;100389.38;4949491;28;20027;-66
2022/05/24 08:33:06;;;;;;;5.60;2.53;;;;;;;15.60;76.03;100407.72;4949558;28;20019;-66
2022/05/24 08:35:35;;;;;;;4.53;2.63;;;;;;;15.47;76.14;100401.56;4949909;28;20042;-66
2022/05/24 08:38:02;;;;;;;5.15;2.40;;;;;;;15.12;74.97;100397.91;4948964;28;20110;-66
2022/05/24 08:40:27;;;;;;;4.20;2.35;;;;;;;14.69;74.77;100408.00;4949306;28;20029;-66
2022/05/24 08:43:30;;;;;;;3.78;1.75;;;;;;;14.56;76.73;100415.72;4949555;28;20028;-66
2022/05/24 08:48:54;;;;;;;4.88;2.20;;;;;;;14.36;79.06;100426.81;4949530;28;20042;-67
2022/05/24 08:51:29;;;;;;;4.90;1.70;;;;;;;14.28;79.59;100424.13;4949020;28;20034;-66
2022/05/24 08:54:00;;;;;;;4.07;1.73;;;;;;;14.25;80.44;100438.88;4949756;28;20046;-66
2022/05/24 08:56:31;;;;;;;4.82;1.95;;;;;;;14.33;82.16;100437.22;4949372;28;20094;-66
2022/05/24 08:59:09;;;;;;;4.40;1.70;;;;;;;14.19;80.01;100439.69;4949521;28;20027;-66
2022/05/24 09:01:35;;;;;;;2.67;1.73;;;;;;;14.29;80.68;100446.75;4961760;28;20034;-66
2022/05/24 09:04:04;;;;;;;4.00;1.30;;;;;;;14.27;80.51;100439.75;4967880;28;20027;-66
2022/05/24 09:06:49;;;;;;;2.05;1.20;;;;;;;14.02;79.69;100453.41;4967815;28;20471;-66
2022/05/24 09:09:38;;;;;;;4.82;1.83;;;;;;;14.03;81.55;100465.56;4967740;28;20031;-67
2022/05/24 09:12:18;;;;;;;4.03;1.30;;;;;;;14.09;81.62;100467.38;4970829;28;20318;-66
2022/05/24 09:15:24;;;;;;;2.80;0.90;;;;;;;14.11;80.72;100463.06;4971057;28;20034;-66
2022/05/24 09:18:31;;;;;;;1.60;1.10;;;;;;;14.04;80.10;100477.75;4971192;28;20071;-66
2022/05/24 09:20:57;;;;;;;2.42;1.20;;;;;;;14.10;80.54;100474.34;4933022;29;20047;-66
2022/05/24 09:23:57;;;;;;;4.50;1.20;;;;;;;14.16;80.64;100481.34;4951934;28;20423;-65
2022/05/24 09:26:24;;;;;;;2.13;1.75;;;;;;;14.36;78.64;100471.13;4965396;28;20049;-66
2022/05/24 09:28:57;;;;;;;4.50;1.80;;;;;;;14.48;78.15;100478.19;4970420;28;20034;-66
2022/05/24 09:31:46;;;;;;;3.38;2.25;;;;;;;14.46;77.08;100479.06;4971185;28;20027;-66
2022/05/24 09:34:17;;;;;;;6.82;2.40;;;;;;;14.45;77.04;100490.31;4971175;28;20253;-66
2022/05/24 09:36:59;;;;;;;3.60;2.30;;;;;;;14.17;75.18;100496.97;4970962;28;21004;-66
2022/05/24 09:39:33;;;;;;;2.90;2.33;;;;;;;14.16;77.57;100494.34;4970572;28;20032;-66
2022/05/24 09:42:03;;;;;;;4.68;2.60;;;;;;;14.06;77.24;100506.41;4970848;28;20026;-66
2022/05/24 09:44:43;;;;;;;3.33;2.50;;;;;;;14.14;78.36;100509.97;4970988;28;20029;-66
2022/05/24 09:47:25;;;;;;;2.55;2.35;;;;;;;14.29;79.07;100509.28;4970953;28;20034;-66
2022/05/24 09:49:50;;;;;;;;;;;;;;;14.48;78.31;100508.63;4971213;28;20065;-66
2022/05/24 09:52:16;;;;;;;6.13;2.78;;;;;;;14.91;76.77;100507.31;4970001;28;20035;-66
2022/05/24 09:54:58;;;;;;;4.32;3.00;;;;;;;15.30;74.68;100505.88;4970253;28;20035;-66
2022/05/24 09:57:29;;;;;;;4.60;2.95;;;;;;;15.75;74.07;100507.91;4970580;28;20029;-67
2022/05/24 10:00:20;;;;;;;3.45;2.70;;;;;;;16.24;73.73;100511.63;4970288;28;20107;-65
2022/05/24 10:02:47;;;;;;;3.75;3.33;;;;;;;16.40;69.73;100507.31;4969603;28;20452;-66
2022/05/24 10:05:22;;;;;;;5.10;3.78;;;;;;;16.51;68.69;100502.09;4970506;28;20573;-66
2022/05/24 10:08:19;;;;;;;4.03;3.70;;;;;;;16.47;67.29;100502.97;4970544;28;20023;-66
2022/05/24 10:10:48;;;;;;;3.88;3.58;;;;;;;16.54;67.92;100509.94;4965894;28;20045;-66
2022/05/24 10:13:25;;;;;;;4.25;3.90;;;;;;;16.73;67.05;100516.97;4969423;28;20035;-65
2022/05/24 10:16:09;;;;;;;5.97;4.45;;;;;;;16.80;67.63;100513.47;4970295;28;20035;-66
2022/05/24 10:18:55;;;;;;;5.00;4.18;;;;;;;16.84;68.65;100517.81;4969831;28;20030;-66
2022/05/24 10:21:26;;;;;;;3.75;3.40;;;;;;;17.01;67.28;100514.34;4969684;28;20275;-67
2022/05/24 10:24:16;;;;;;;4.03;3.75;;;;;;;17.10;65.17;100530.09;4969642;28;20035;-67
2022/05/24 10:26:48;;;;;;;5.32;2.92;;;;;;;16.88;63.30;100518.69;4970143;28;20479;-66
2022/05/24 10:29:35;;;;;;;3.15;2.95;;;;;;;16.76;62.99;100525.69;4969858;28;20026;-66
2022/05/24 10:32:03;;;;;;;6.57;3.63;;;;;;;16.63;62.21;100526.53;4969951;28;20033;-66
2022/05/24 10:40:41;;;;;;;4.40;3.75;;;;;;;16.70;65.20;100536.13;4969773;28;20100;-67
2022/05/24 10:43:24;;;;;;;;;;;;;;;16.71;64.14;100532.66;4970044;28;20023;-67
2022/05/24 10:46:01;;;;;;;4.35;4.00;;;;;;;16.86;63.76;100530.91;4969887;28;19914;-67
2022/05/24 10:48:37;;;;;;;5.00;3.97;;;;;;;16.88;64.31;100539.63;4969793;28;20077;-65
2022/05/24 10:51:11;;;;;;;5.07;4.03;;;;;;;16.79;63.79;100543.13;4969631;28;20023;-66
2022/05/24 10:53:52;;;;;;;4.80;4.40;;;;;;;16.61;63.09;100538.72;4969860;28;20042;-66
2022/05/24 10:56:27;;;;;;;5.88;4.35;;;;;;;16.46;64.85;100547.41;4969339;28;20041;-66
2022/05/24 10:59:00;;;;;;;5.05;4.55;;;;;;;16.43;66.02;100543.03;4969582;28;20033;-66
2022/05/24 11:01:40;;;;;;;5.57;5.07;;;;;;;16.29;64.63;100541.25;4969405;28;20614;-66
2022/05/24 11:04:10;;;;;;;5.45;4.95;;;;;;;16.44;67.53;100539.56;4967889;28;20410;-66
2022/05/24 11:06:39;;;;;;;3.93;3.57;;;;;;;16.75;70.93;100544.84;4969226;28;20400;-66
2022/05/24 11:09:15;;;;;;;3.22;2.95;;;;;;;16.90;69.60;100548.38;4969591;28;20270;-67
2022/05/24 11:11:46;;;;;;;5.03;3.97;;;;;;;17.02;70.02;100548.38;4969122;28;20037;-66
2022/05/24 11:14:24;;;;;;;3.22;3.03;;;;;;;17.02;68.17;100547.50;4968993;28;20038;-66
2022/05/24 11:16:51;;;;;;;3.20;3.00;;;;;;;17.11;68.24;100547.53;4969194;28;20086;-66
2022/05/24 11:19:22;;;;;;;3.10;2.60;;;;;;;17.38;67.38;100547.50;4968801;28;20065;-66
2022/05/24 11:22:12;;;;;;;3.53;3.17;;;;;;;17.73;70.49;100541.38;4968913;28;20027;-66
2022/05/24 11:25:02;;;;;;;4.60;3.20;;;;;;;17.98;67.57;100540.41;4968735;28;20034;-66
2022/05/24 11:27:35;;;;;;;5.53;4.00;;;;;;;17.83;63.48;100555.28;4968731;28;20031;-66
2022/05/24 11:30:27;;;;;;;4.05;3.75;;;;;;;17.88;61.80;100543.03;4968886;28;20546;-66
2022/05/24 11:32:53;;;;;;;3.55;3.30;;;;;;;18.04;61.62;100548.25;4967663;28;20557;-66
2022/05/24 11:35:19;;;;;;;7.15;3.65;;;;;;;18.16;60.32;100543.84;4968680;28;20475;-66
2022/05/24 11:37:47;;;;;;;3.97;3.67;;;;;;;18.35;60.44;100555.13;4969032;28;20293;-66
2022/05/24 11:40:30;;;;;;;3.72;2.78;;;;;;;18.59;57.31;100558.50;4968569;28;20042;-67
2022/05/24 11:43:00;;;;;;;5.53;3.25;;;;;;;18.61;58.52;100559.38;4967938;28;20027;-66
2022/05/24 11:45:28;;;;;;;3.35;3.05;;;;;;;18.74;58.26;100561.91;4968880;28;20101;-66
2022/05/24 11:47:53;;;;;;;3.20;2.83;;;;;;;18.51;56.14;100565.56;4968997;28;20286;-66
2022/05/24 11:50:31;;;;;;;4.90;2.95;;;;;;;18.56;57.17;100558.53;4968334;28;20041;-67
2022/05/24 11:53:01;;;;;;;3.72;3.10;;;;;;;18.60;57.90;100573.38;4968318;28;20031;-66
2022/05/24 11:55:42;;;;;;;3.42;2.53;;;;;;;18.79;59.88;100573.25;4967815;28;20026;-66
2022/05/24 11:58:30;;;;;;;3.78;3.05;;;;;;;18.86;56.12;100580.22;4968485;28;20066;-66